Time;durP1;ratioP1;P1;durP2;ratioP2;P2;SDS_P1;SDS_P2;PMS_P1;PMS_P2;Temp;Humidity;BMP_temperature;BMP_pressure;BME280_temperature;BME280_humidity;BME280_pressure;Samples;Min_cycle;Max_cycle;Signal;HPM_P1;HPM_P2
2021/12/01 00:00:26;;;;;;;1.33;1.13;;;10.10;80.60;;;;;;5117365;27;20100;-49
2021/12/01 00:02:55;;;;;;;1.58;1.23;;;10.00;80.50;;;;;;5134323;27;20128;-50
2021/12/01 00:05:22;;;;;;;1.27;1.17;;;10.10;80.60;;;;;;5136229;27;20553;-52
2021/12/01 00:07:49;;;;;;;2.05;1.13;;;10.10;80.70;;;;;;5136136;27;20043;-51
2021/12/01 00:10:16;;;;;;;1.67;1.38;;;10.10;80.70;;;;;;5135996;27;20446;-52
2021/12/01 00:12:42;;;;;;;2.08;1.50;;;10.10;80.80;;;;;;5135970;27;20075;-50
2021/12/01 00:15:08;;;;;;;1.30;1.20;;;10.10;80.80;;;;;;5134098;27;20185;-51
2021/12/01 00:17:34;;;;;;;1.15;1.05;;;10.10;80.80;;;;;;5135671;27;20047;-52
2021/12/01 00:20:00;;;;;;;2.15;1.20;;;10.10;80.80;;;;;;5136134;27;20081;-54
2021/12/01 00:22:26;;;;;;;1.17;1.05;;;10.10;80.80;;;;;;5135989;27;20429;-51
2021/12/01 00:24:53;;;;;;;2.65;1.20;;;10.10;80.80;;;;;;5134120;27;20047;-54
2021/12/01 00:27:18;;;;;;;1.77;1.30;;;10.10;80.80;;;;;;5135790;27;20082;-54
2021/12/01 00:29:44;;;;;;;1.90;1.25;;;10.10;80.80;;;;;;5135858;27;20079;-56
2021/12/01 00:32:10;;;;;;;1.52;1.10;;;10.10;80.80;;;;;;5135653;27;20483;-52
2021/12/01 00:34:36;;;;;;;2.03;1.30;;;10.00;80.70;;;;;;5134483;27;20039;-54
2021/12/01 00:37:02;;;;;;;1.80;1.23;;;10.10;80.80;;;;;;5134738;27;20073;-52
2021/12/01 00:39:27;;;;;;;2.38;1.40;;;10.10;80.80;;;;;;5135452;27;20050;-50
2021/12/01 00:41:55;;;;;;;1.48;1.27;;;10.10;80.80;;;;;;5134159;27;20054;-54
2021/12/01 00:44:21;;;;;;;1.95;1.35;;;10.10;80.80;;;;;;5135186;27;20479;-51
2021/12/01 00:46:55;;;;;;;1.75;1.45;;;10.10;80.80;;;;;;5133455;27;20042;-55
2021/12/01 00:49:22;;;;;;;1.73;1.40;;;10.10;80.80;;;;;;5134803;27;20043;-56
2021/12/01 00:51:47;;;;;;;1.67;1.58;;;10.10;80.80;;;;;;5135427;27;20087;-52
2021/12/01 00:54:13;;;;;;;1.15;1.05;;;10.10;80.80;;;;;;5117073;27;20042;-49
2021/12/01 00:56:39;;;;;;;1.35;1.20;;;10.10;80.80;;;;;;5133808;27;20462;-53
2021/12/01 00:59:06;;;;;;;1.13;1.00;;;10.10;80.80;;;;;;5135308;27;20121;-57
2021/12/01 01:01:31;;;;;;;1.23;1.08;;;10.10;80.80;;;;;;5135158;27;20046;-53
2021/12/01 01:03:57;;;;;;;1.67;1.25;;;10.10;80.80;;;;;;5135445;27;20035;-55
2021/12/01 01:06:23;;;;;;;2.17;1.30;;;10.10;80.80;;;;;;5134854;27;20885;-56
2021/12/01 01:08:48;;;;;;;1.77;1.27;;;10.10;80.80;;;;;;5133600;27;20054;-55
2021/12/01 01:16:44;;;;;;;1.30;1.20;;;10.10;80.80;;;;;;5135626;27;20054;-54
2021/12/01 01:19:13;;;;;;;1.65;1.13;;;10.10;80.80;;;;;;5133649;27;20043;-55
2021/12/01 01:21:43;;;;;;;1.17;1.08;;;10.10;80.80;;;;;;5115896;27;20407;-51
2021/12/01 01:24:09;;;;;;;1.67;1.00;;;10.10;80.80;;;;;;5134861;27;20043;-49
2021/12/01 01:26:35;;;;;;;1.67;1.20;;;10.10;80.80;;;;;;5134903;27;20372;-46
2021/12/01 01:29:02;;;;;;;2.97;1.30;;;10.10;80.80;;;;;;5132762;27;20071;-46
2021/12/01 01:31:27;;;;;;;1.38;1.13;;;10.10;80.90;;;;;;5134583;27;20486;-48
2021/12/01 01:33:53;;;;;;;1.40;1.10;;;10.10;80.80;;;;;;5134511;27;20089;-52
2021/12/01 01:36:19;;;;;;;1.95;1.20;;;10.10;80.80;;;;;;5133994;27;20043;-49
2021/12/01 01:38:45;;;;;;;1.58;1.13;;;10.10;80.90;;;;;;5132857;27;20050;-49
2021/12/01 01:41:13;;;;;;;1.73;1.00;;;10.10;80.80;;;;;;5134250;27;20055;-49
2021/12/01 01:43:40;;;;;;;1.25;1.05;;;10.10;80.80;;;;;;5134497;27;20070;-49
2021/12/01 01:46:07;;;;;;;1.30;1.10;;;10.10;80.90;;;;;;5134469;27;20079;-48
2021/12/01 01:48:44;;;;;;;1.10;1.00;;;10.10;80.90;;;;;;5134047;27;20440;-49
2021/12/01 01:51:10;;;;;;;1.10;1.00;;;10.10;80.90;;;;;;5132240;27;20513;-51
2021/12/01 01:53:36;;;;;;;1.08;0.98;;;10.10;80.90;;;;;;5133129;27;20043;-52
2021/12/01 01:56:04;;;;;;;0.88;0.88;;;10.10;80.90;;;;;;5134005;27;20039;-55
2021/12/01 01:58:30;;;;;;;1.75;0.98;;;10.10;80.90;;;;;;5133892;27;20050;-50
2021/12/01 02:01:06;;;;;;;1.10;1.00;;;10.10;80.90;;;;;;5132489;27;20048;-53
2021/12/01 02:03:33;;;;;;;;;;;10.10;80.90;;;;;;5134471;27;20186;-53
2021/12/01 02:05:58;;;;;;;1.02;0.90;;;10.10;80.80;;;;;;5115302;27;19934;-49
2021/12/01 02:08:31;;;;;;;1.15;0.95;;;10.10;80.90;;;;;;5133467;27;20047;-50
2021/12/01 02:10:59;;;;;;;0.75;0.75;;;10.10;80.90;;;;;;5132183;27;20084;-47
2021/12/01 02:13:26;;;;;;;1.65;1.08;;;10.10;81.00;;;;;;5133625;27;20154;-51
2021/12/01 02:15:53;;;;;;;1.55;1.00;;;10.10;81.60;;;;;;5132052;27;20039;-52
2021/12/01 02:18:20;;;;;;;1.20;1.10;;;10.10;81.00;;;;;;5133600;27;20043;-50
2021/12/01 02:21:03;;;;;;;0.88;0.88;;;10.10;81.00;;;;;;5133682;27;20064;-48
2021/12/01 02:23:29;;;;;;;1.10;0.88;;;10.10;81.00;;;;;;5133086;27;20494;-51
2021/12/01 02:25:55;;;;;;;1.45;0.90;;;10.10;81.00;;;;;;5133268;27;20035;-52
2021/12/01 02:28:20;;;;;;;1.27;0.98;;;10.10;81.00;;;;;;5133602;27;20043;-49
2021/12/01 02:30:47;;;;;;;1.20;0.90;;;10.10;81.00;;;;;;5133574;27;20082;-53
2021/12/01 02:33:12;;;;;;;0.88;0.88;;;10.10;81.00;;;;;;5131553;27;20578;-54
2021/12/01 02:35:38;;;;;;;1.05;0.90;;;10.10;81.00;;;;;;5133490;27;20062;-54
2021/12/01 02:38:05;;;;;;;1.10;1.00;;;10.10;81.00;;;;;;5133326;27;20483;-49
2021/12/01 02:40:31;;;;;;;1.13;1.02;;;10.10;81.00;;;;;;5132703;27;20081;-55
2021/12/01 02:42:57;;;;;;;0.88;0.82;;;10.20;81.10;;;;;;5131228;27;20089;-51
2021/12/01 02:45:22;;;;;;;1.10;1.00;;;10.10;81.00;;;;;;5114869;27;20083;-54
2021/12/01 02:47:48;;;;;;;0.82;0.82;;;10.20;81.10;;;;;;5133160;27;20042;-54
2021/12/01 02:50:14;;;;;;;1.00;0.85;;;10.10;81.00;;;;;;5133176;27;20046;-54
2021/12/01 02:52:39;;;;;;;1.65;1.00;;;10.20;81.10;;;;;;5133176;27;20035;-54
2021/12/01 02:55:07;;;;;;;1.00;1.00;;;10.10;81.00;;;;;;5131535;28;20063;-52
2021/12/01 02:57:46;;;;;;;1.27;0.90;;;10.10;81.00;;;;;;5132823;28;20439;-56
2021/12/01 03:00:12;;;;;;;1.60;1.00;;;10.10;81.00;;;;;;5133510;28;20051;-52
2021/12/01 03:02:39;;;;;;;1.23;0.95;;;10.10;81.00;;;;;;5133142;28;20487;-53
2021/12/01 03:05:06;;;;;;;1.10;0.77;;;10.10;81.00;;;;;;5112615;28;20046;-53
2021/12/01 03:07:33;;;;;;;0.80;0.80;;;10.10;81.00;;;;;;5137588;27;20132;-52
2021/12/01 03:09:59;;;;;;;1.98;1.00;;;10.10;81.00;;;;;;5137651;27;20405;-53
2021/12/01 03:12:29;;;;;;;0.85;0.80;;;10.10;81.00;;;;;;5136755;27;20047;-45
2021/12/01 03:14:55;;;;;;;1.23;0.80;;;10.10;81.10;;;;;;5117527;27;20483;-54
2021/12/01 03:17:20;;;;;;;0.98;0.85;;;10.10;81.00;;;;;;5119013;27;20096;-53
2021/12/01 03:19:46;;;;;;;1.40;0.93;;;10.20;81.10;;;;;;5137637;27;20528;-53
2021/12/01 03:22:13;;;;;;;1.52;1.08;;;10.20;81.10;;;;;;5137268;27;20049;-52
2021/12/01 03:24:39;;;;;;;0.85;0.73;;;10.10;81.00;;;;;;5137241;27;20050;-53
2021/12/01 03:27:05;;;;;;;0.60;0.60;;;10.20;81.10;;;;;;5135665;27;20047;-54
2021/12/01 03:29:31;;;;;;;1.10;0.93;;;10.20;81.10;;;;;;5136386;27;20430;-51
2021/12/01 03:31:57;;;;;;;1.05;0.73;;;10.20;81.10;;;;;;5137280;27;20042;-56
2021/12/01 03:34:23;;;;;;;1.08;0.77;;;10.20;81.10;;;;;;5137025;27;20038;-53
2021/12/01 03:36:49;;;;;;;1.38;0.90;;;10.20;81.10;;;;;;5116499;27;20072;-52
2021/12/01 03:39:14;;;;;;;1.40;0.80;;;10.20;81.10;;;;;;5136876;27;20035;-55
2021/12/01 03:41:41;;;;;;;0.70;0.70;;;10.20;81.10;;;;;;5136733;27;20051;-54
2021/12/01 03:44:07;;;;;;;1.25;0.82;;;10.20;81.10;;;;;;5135977;27;20043;-47
2021/12/01 03:46:33;;;;;;;0.70;0.70;;;10.20;81.10;;;;;;5134951;27;20115;-50
2021/12/01 03:48:59;;;;;;;0.98;0.80;;;10.10;81.10;;;;;;5136745;27;20135;-47
2021/12/01 03:51:25;;;;;;;1.77;0.80;;;10.20;81.20;;;;;;5136444;27;20050;-49
2021/12/01 03:53:51;;;;;;;2.47;0.80;;;10.20;81.10;;;;;;5136449;27;20039;-46
2021/12/01 03:56:19;;;;;;;0.80;0.70;;;10.20;81.10;;;;;;5136672;27;20046;-49
2021/12/01 03:58:46;;;;;;;0.95;0.80;;;10.20;81.10;;;;;;5134471;27;20061;-50
2021/12/01 04:01:12;;;;;;;0.70;0.70;;;10.20;81.20;;;;;;5135634;27;20041;-51
2021/12/01 04:03:38;;;;;;;1.10;0.80;;;10.20;81.10;;;;;;5136269;27;20039;-46
2021/12/01 04:06:04;;;;;;;1.25;0.80;;;10.20;81.20;;;;;;5136323;27;20122;-46
2021/12/01 04:08:30;;;;;;;1.95;0.80;;;10.20;81.20;;;;;;5134665;27;20040;-48
2021/12/01 04:10:56;;;;;;;3.10;0.80;;;10.20;81.10;;;;;;5136016;27;20066;-49
2021/12/01 04:13:22;;;;;;;1.60;0.90;;;10.10;81.10;;;;;;5135910;27;20507;-51
2021/12/01 04:15:47;;;;;;;1.10;0.70;;;10.20;81.10;;;;;;5135518;27;20115;-52
2021/12/01 04:18:14;;;;;;;1.00;0.70;;;10.20;81.20;;;;;;5132966;27;20051;-49
2021/12/01 04:20:40;;;;;;;1.27;0.80;;;10.20;81.10;;;;;;5135728;27;20070;-51
2021/12/01 04:23:06;;;;;;;0.80;0.80;;;10.20;81.10;;;;;;5135887;27;20129;-49
2021/12/01 04:25:32;;;;;;;1.05;0.60;;;10.30;81.20;;;;;;5135878;27;20070;-51
2021/12/01 04:27:58;;;;;;;0.65;0.60;;;10.20;81.10;;;;;;5135686;27;20047;-55
2021/12/01 04:30:25;;;;;;;1.10;0.80;;;10.20;81.10;;;;;;5134164;27;20046;-50
2021/12/01 04:32:52;;;;;;;0.80;0.70;;;10.20;81.10;;;;;;5134960;27;20118;-50
2021/12/01 04:35:19;;;;;;;1.00;0.70;;;10.10;81.10;;;;;;5135797;27;20046;-52
2021/12/01 04:37:46;;;;;;;1.30;0.80;;;10.20;81.10;;;;;;5135629;27;20495;-48
2021/12/01 04:40:15;;;;;;;0.85;0.70;;;10.20;81.10;;;;;;5133561;27;20039;-51
2021/12/01 04:42:41;;;;;;;1.65;0.93;;;10.20;81.10;;;;;;5135359;27;20102;-52
2021/12/01 04:45:14;;;;;;;1.42;0.85;;;10.20;81.10;;;;;;5135468;27;20078;-53
2021/12/01 04:47:44;;;;;;;1.83;0.90;;;10.20;81.10;;;;;;5134782;27;20066;-53
2021/12/01 04:50:11;;;;;;;0.65;0.52;;;10.20;81.10;;;;;;5134903;27;20443;-53
2021/12/01 04:52:37;;;;;;;1.17;0.88;;;10.20;81.20;;;;;;5134005;27;20035;-54
2021/12/01 04:55:04;;;;;;;1.80;0.82;;;10.20;81.10;;;;;;5135107;27;20096;-54
2021/12/01 04:57:30;;;;;;;0.75;0.70;;;10.20;81.10;;;;;;5135272;27;20047;-48
2021/12/01 04:59:56;;;;;;;1.17;0.73;;;10.20;81.10;;;;;;5135134;27;20043;-52
2021/12/01 05:02:22;;;;;;;1.13;0.70;;;10.20;81.10;;;;;;5133309;27;20071;-51
2021/12/01 05:04:47;;;;;;;0.95;0.68;;;10.20;81.10;;;;;;5134635;27;20035;-52
2021/12/01 05:07:13;;;;;;;1.35;0.77;;;10.20;81.20;;;;;;5134946;27;20080;-56
2021/12/01 05:09:39;;;;;;;1.73;0.70;;;10.20;81.10;;;;;;5135269;27;20054;-52
2021/12/01 05:12:09;;;;;;;1.65;0.60;;;10.20;81.10;;;;;;5133375;27;20049;-50
2021/12/01 05:14:35;;;;;;;0.98;0.73;;;10.20;81.10;;;;;;5135235;27;20422;-53
2021/12/01 05:17:02;;;;;;;1.08;0.65;;;10.20;81.20;;;;;;5134944;27;20065;-52
2021/12/01 05:19:27;;;;;;;1.20;0.50;;;10.30;81.20;;;;;;5134740;27;20039;-48
2021/12/01 05:21:54;;;;;;;2.03;0.90;;;10.20;81.10;;;;;;5135204;27;20053;-50
2021/12/01 05:24:20;;;;;;;1.42;0.60;;;10.20;81.10;;;;;;5119477;27;20051;-51
2021/12/01 05:26:45;;;;;;;0.90;0.70;;;10.30;81.20;;;;;;5114450;28;20122;-48
2021/12/01 05:29:11;;;;;;;1.23;0.80;;;10.30;81.20;;;;;;5113319;28;20075;-47
2021/12/01 05:31:37;;;;;;;2.28;0.88;;;10.30;81.20;;;;;;5114079;28;20054;-53
2021/12/01 05:34:03;;;;;;;1.48;0.90;;;10.20;81.20;;;;;;5115022;27;20035;-56
2021/12/01 05:36:29;;;;;;;1.33;0.85;;;10.30;81.30;;;;;;5113506;28;20051;-50
2021/12/01 05:38:55;;;;;;;1.15;0.88;;;10.30;81.30;;;;;;5113869;28;20249;-56
2021/12/01 05:41:21;;;;;;;1.10;0.60;;;10.30;81.20;;;;;;5113632;28;20130;-51
2021/12/01 05:43:47;;;;;;;0.90;0.70;;;10.30;81.30;;;;;;5114352;27;20039;-55
2021/12/01 05:46:13;;;;;;;1.08;0.60;;;10.30;81.30;;;;;;5114132;27;20052;-48
2021/12/01 05:48:38;;;;;;;1.35;0.80;;;10.30;81.30;;;;;;5113943;28;20031;-51
2021/12/01 05:51:04;;;;;;;1.00;0.65;;;10.20;81.20;;;;;;5113002;28;20502;-53
2021/12/01 05:53:30;;;;;;;0.80;0.68;;;10.30;81.30;;;;;;5113282;28;20058;-48
2021/12/01 05:55:56;;;;;;;1.02;0.73;;;10.30;81.30;;;;;;5114794;28;20031;-53
2021/12/01 05:58:21;;;;;;;1.13;0.60;;;10.30;81.30;;;;;;5112281;28;20047;-56
2021/12/01 06:00:48;;;;;;;0.82;0.68;;;10.30;81.30;;;;;;5113469;28;20058;-54
2021/12/01 06:03:14;;;;;;;1.38;0.73;;;10.30;81.30;;;;;;5113187;28;20071;-48
2021/12/01 06:05:40;;;;;;;0.75;0.50;;;10.30;81.30;;;;;;5114657;27;20039;-50
2021/12/01 06:08:06;;;;;;;0.45;0.45;;;10.30;81.30;;;;;;5112669;28;20129;-49
2021/12/01 06:10:32;;;;;;;0.77;0.57;;;10.30;81.30;;;;;;5113354;27;20036;-49
2021/12/01 06:12:59;;;;;;;1.33;0.50;;;10.40;81.40;;;;;;5111791;28;20126;-47
2021/12/01 06:15:24;;;;;;;1.27;0.85;;;10.30;81.30;;;;;;5112902;28;20118;-47
2021/12/01 06:17:50;;;;;;;0.60;0.60;;;10.30;81.30;;;;;;5114199;27;20048;-47
2021/12/01 06:20:16;;;;;;;0.40;0.40;;;10.40;81.40;;;;;;5113014;28;20044;-52
2021/12/01 06:22:43;;;;;;;0.75;0.60;;;10.30;81.30;;;;;;5112958;28;20039;-51
2021/12/01 06:25:09;;;;;;;0.60;0.40;;;10.30;81.30;;;;;;5112873;28;20062;-51
2021/12/01 06:27:37;;;;;;;0.82;0.60;;;10.30;81.30;;;;;;5114176;27;20050;-51
2021/12/01 06:30:04;;;;;;;1.05;0.90;;;10.30;81.30;;;;;;5094694;28;20100;-50
2021/12/01 06:32:30;;;;;;;0.93;0.70;;;10.30;81.30;;;;;;5112770;28;20039;-51
2021/12/01 06:34:56;;;;;;;0.73;0.70;;;10.30;81.30;;;;;;5112869;28;20161;-51
2021/12/01 06:37:21;;;;;;;1.20;0.60;;;10.30;81.30;;;;;;5113771;27;20447;-52
2021/12/01 06:39:47;;;;;;;0.50;0.50;;;10.30;81.30;;;;;;5112435;28;20436;-56
2021/12/01 06:42:14;;;;;;;0.95;0.57;;;10.30;81.30;;;;;;5112548;28;20411;-56
2021/12/01 06:44:40;;;;;;;1.25;0.70;;;10.30;81.30;;;;;;5112757;28;20411;-52
2021/12/01 06:47:06;;;;;;;0.50;0.50;;;10.30;81.30;;;;;;5111419;28;20055;-55
2021/12/01 06:49:32;;;;;;;0.55;0.50;;;10.30;81.30;;;;;;5114041;28;20046;-52
2021/12/01 06:51:57;;;;;;;0.70;0.35;;;10.30;81.30;;;;;;5112780;28;20491;-54
2021/12/01 06:54:23;;;;;;;0.73;0.60;;;10.30;81.30;;;;;;5112391;28;20046;-55
2021/12/01 06:56:49;;;;;;;0.43;0.43;;;10.30;81.30;;;;;;5112343;28;20047;-52
2021/12/01 06:59:15;;;;;;;0.88;0.60;;;10.30;81.30;;;;;;5113689;28;20044;-49
2021/12/01 07:01:41;;;;;;;0.40;0.40;;;10.30;81.40;;;;;;5112719;28;20036;-52
2021/12/01 07:04:06;;;;;;;0.60;0.60;;;10.30;81.40;;;;;;5112722;28;20398;-49
2021/12/01 07:06:32;;;;;;;0.40;0.40;;;10.40;81.40;;;;;;5112869;28;20123;-44
2021/12/01 07:09:01;;;;;;;0.82;0.50;;;10.30;81.40;;;;;;5113365;28;20047;-50
2021/12/01 07:11:29;;;;;;;1.30;0.70;;;10.30;81.30;;;;;;5111861;28;20108;-47
2021/12/01 07:13:55;;;;;;;0.73;0.40;;;10.30;81.40;;;;;;5112611;28;20043;-51
2021/12/01 07:16:22;;;;;;;0.65;0.50;;;10.40;81.40;;;;;;5112823;28;20368;-46
2021/12/01 07:18:48;;;;;;;0.65;0.50;;;10.30;81.40;;;;;;5112550;28;20511;-52
2021/12/01 07:21:14;;;;;;;0.45;0.45;;;10.30;81.40;;;;;;5113811;28;20050;-52
2021/12/01 07:23:40;;;;;;;0.50;0.50;;;10.30;81.40;;;;;;5112608;28;20047;-57
2021/12/01 07:26:06;;;;;;;1.65;0.50;;;10.30;81.40;;;;;;5125234;28;20089;-56
2021/12/01 07:28:32;;;;;;;0.40;0.40;;;10.30;81.40;;;;;;5132253;27;20051;-49
2021/12/01 07:30:59;;;;;;;0.60;0.43;;;10.30;81.40;;;;;;5129794;28;20486;-54
2021/12/01 07:33:24;;;;;;;0.43;0.40;;;10.30;81.40;;;;;;5132683;28;20126;-53
2021/12/01 07:35:51;;;;;;;0.52;0.52;;;10.30;81.50;;;;;;5132594;28;20114;-52
2021/12/01 07:38:17;;;;;;;0.65;0.60;;;10.30;81.40;;;;;;5132718;28;20097;-52
2021/12/01 07:40:43;;;;;;;0.40;0.40;;;10.30;81.40;;;;;;5132471;27;20039;-53
2021/12/01 07:43:08;;;;;;;0.50;0.50;;;10.40;81.50;;;;;;5129536;28;20467;-51
2021/12/01 07:45:35;;;;;;;0.43;0.43;;;10.30;81.40;;;;;;5131960;27;20065;-55
2021/12/01 07:48:01;;;;;;;0.40;0.40;;;10.30;81.40;;;;;;5132232;28;20097;-50
2021/12/01 07:50:26;;;;;;;0.68;0.50;;;10.40;81.50;;;;;;5130450;28;20050;-48
2021/12/01 07:52:52;;;;;;;0.40;0.40;;;10.40;81.50;;;;;;5133860;27;20047;-46
2021/12/01 07:55:18;;;;;;;0.43;0.43;;;10.40;81.50;;;;;;5136664;27;20035;-45
2021/12/01 07:57:45;;;;;;;0.40;0.40;;;10.30;81.40;;;;;;5136674;27;20493;-45
2021/12/01 08:00:11;;;;;;;0.40;0.40;;;10.40;82.20;;;;;;5135970;27;20521;-46
2021/12/01 08:02:37;;;;;;;0.80;0.70;;;10.40;81.50;;;;;;5135419;27;20062;-48
2021/12/01 08:05:04;;;;;;;0.55;0.52;;;10.40;81.50;;;;;;5136746;27;20032;-47
2021/12/01 08:07:34;;;;;;;0.50;0.50;;;10.40;81.50;;;;;;5136214;27;20035;-45
2021/12/01 08:10:00;;;;;;;0.50;0.50;;;10.40;81.50;;;;;;5136218;27;20112;-45
2021/12/01 08:12:26;;;;;;;1.13;0.52;;;10.30;81.50;;;;;;5136198;27;20482;-49
2021/12/01 08:14:51;;;;;;;6.20;2.35;;;10.40;81.50;;;;;;5121983;27;20395;-51
2021/12/01 08:17:17;;;;;;;8.13;1.90;;;10.40;83.10;;;;;;5122665;27;20468;-49
2021/12/01 08:19:43;;;;;;;2.10;1.55;;;10.30;82.90;;;;;;5136314;27;20035;-54
2021/12/01 08:22:09;;;;;;;1.67;1.50;;;10.30;82.90;;;;;;5136193;27;20038;-50
2021/12/01 08:24:35;;;;;;;2.10;1.17;;;10.30;82.90;;;;;;5134173;27;20104;-50
2021/12/01 08:27:01;;;;;;;4.13;1.90;;;10.40;82.90;;;;;;5135790;27;20047;-48
2021/12/01 08:29:27;;;;;;;2.72;1.48;;;10.30;82.90;;;;;;5135877;27;20088;-45
2021/12/01 08:31:52;;;;;;;2.30;1.42;;;10.30;82.80;;;;;;5135091;27;20043;-49
2021/12/01 08:34:18;;;;;;;2.75;1.52;;;10.40;82.80;;;;;;5129713;27;20086;-46
2021/12/01 08:36:46;;;;;;;1.52;1.23;;;10.40;82.80;;;;;;5125065;27;20139;-48
2021/12/01 08:39:12;;;;;;;2.15;1.23;;;10.40;82.80;;;;;;5135171;27;20118;-49
2021/12/01 08:41:38;;;;;;;2.08;1.30;;;10.40;82.70;;;;;;5134741;27;20475;-53
2021/12/01 08:44:04;;;;;;;1.75;1.25;;;10.40;82.70;;;;;;5134961;27;20418;-49
2021/12/01 08:46:30;;;;;;;2.28;1.27;;;10.40;82.60;;;;;;5134156;27;20042;-53
2021/12/01 08:48:58;;;;;;;1.70;1.25;;;10.40;82.60;;;;;;5134674;27;20058;-48
2021/12/01 08:51:25;;;;;;;1.30;1.13;;;10.40;82.90;;;;;;5134930;27;20046;-50
2021/12/01 08:53:51;;;;;;;1.92;1.40;;;10.40;82.50;;;;;;5123173;27;20047;-50
2021/12/01 08:56:16;;;;;;;3.75;1.00;;;10.40;82.50;;;;;;5113313;28;20090;-49
2021/12/01 08:58:42;;;;;;;2.58;1.10;;;10.40;82.40;;;;;;5114692;28;20050;-47
2021/12/01 09:01:08;;;;;;;2.33;1.25;;;10.50;82.40;;;;;;5114503;28;20055;-45
2021/12/01 09:03:34;;;;;;;1.27;1.00;;;10.40;82.30;;;;;;5113898;28;20450;-49
2021/12/01 09:06:00;;;;;;;1.42;1.20;;;10.40;82.40;;;;;;5113036;28;20040;-46
2021/12/01 09:08:26;;;;;;;1.13;1.02;;;10.40;82.30;;;;;;5114511;28;20039;-50
2021/12/01 09:10:54;;;;;;;1.77;0.95;;;10.40;82.30;;;;;;5114470;28;20113;-49
2021/12/01 09:13:22;;;;;;;2.65;1.00;;;10.40;82.30;;;;;;5114530;28;20109;-49
2021/12/01 09:15:49;;;;;;;3.08;1.20;;;10.40;82.30;;;;;;5119274;27;20478;-47
2021/12/01 09:18:15;;;;;;;1.23;0.98;;;10.40;82.30;;;;;;5132545;27;20090;-53
2021/12/01 09:20:40;;;;;;;1.73;1.00;;;10.40;82.20;;;;;;5134757;27;20440;-48
2021/12/01 09:23:06;;;;;;;1.05;0.95;;;10.40;82.20;;;;;;5132845;27;20058;-51
2021/12/01 09:25:33;;;;;;;1.33;0.70;;;10.40;82.20;;;;;;5133029;27;20439;-48
2021/12/01 09:27:59;;;;;;;1.08;0.80;;;10.40;82.20;;;;;;5134662;27;20101;-46
2021/12/01 09:30:25;;;;;;;1.38;0.80;;;10.40;82.20;;;;;;5129177;27;20115;-51
2021/12/01 09:32:51;;;;;;;0.98;0.95;;;10.40;82.20;;;;;;5113716;28;20494;-50
2021/12/01 09:35:17;;;;;;;0.77;0.65;;;10.40;82.20;;;;;;5114683;27;20035;-51
2021/12/01 09:37:42;;;;;;;5.30;1.65;;;10.40;82.20;;;;;;5114130;28;20044;-55
2021/12/01 09:40:13;;;;;;;2.08;1.33;;;10.40;82.60;;;;;;5113963;28;20043;-55
2021/12/01 09:42:45;;;;;;;2.72;1.05;;;10.40;82.70;;;;;;5113833;28;20056;-55
2021/12/01 09:45:13;;;;;;;2.72;1.20;;;10.40;82.60;;;;;;5113939;28;20060;-56
2021/12/01 09:47:39;;;;;;;3.67;1.15;;;10.40;82.60;;;;;;5116350;27;20043;-56
2021/12/01 09:50:06;;;;;;;3.03;1.20;;;10.40;82.60;;;;;;5113429;28;20088;-56
2021/12/01 09:52:32;;;;;;;2.05;1.02;;;10.40;82.60;;;;;;5113675;28;20451;-56
2021/12/01 09:54:58;;;;;;;3.65;1.35;;;10.40;82.60;;;;;;5113750;28;20079;-55
2021/12/01 09:57:24;;;;;;;2.05;0.80;;;10.40;82.50;;;;;;5114779;27;20082;-56
2021/12/01 09:59:50;;;;;;;1.52;0.88;;;10.40;82.50;;;;;;5113804;28;20072;-56
2021/12/01 10:02:17;;;;;;;0.98;0.85;;;10.40;82.40;;;;;;5113551;28;20061;-56
2021/12/01 10:04:43;;;;;;;2.08;1.02;;;10.40;82.40;;;;;;5113865;28;20043;-56
2021/12/01 10:07:16;;;;;;;1.67;0.80;;;10.40;82.40;;;;;;5114866;27;20093;-55
2021/12/01 10:09:50;;;;;;;1.92;0.73;;;10.50;82.40;;;;;;5113687;28;20043;-55
2021/12/01 10:12:16;;;;;;;1.10;0.70;;;10.50;82.40;;;;;;5112028;28;20095;-56
2021/12/01 10:14:47;;;;;;;2.15;0.77;;;10.50;82.40;;;;;;5113198;28;20032;-56
2021/12/01 10:17:15;;;;;;;1.92;0.93;;;10.40;82.30;;;;;;5113082;28;20048;-55
2021/12/01 10:19:41;;;;;;;2.45;0.93;;;10.50;82.30;;;;;;5114587;27;20121;-56
2021/12/01 10:22:11;;;;;;;2.58;1.02;;;10.50;82.40;;;;;;5113026;28;20127;-56
2021/12/01 10:24:39;;;;;;;1.40;0.70;;;10.50;82.30;;;;;;5113233;28;20123;-56
2021/12/01 10:27:12;;;;;;;1.42;0.85;;;10.50;82.30;;;;;;5113105;28;20510;-55
2021/12/01 10:29:48;;;;;;;2.95;1.08;;;10.50;82.20;;;;;;5114379;27;20039;-57
2021/12/01 10:32:16;;;;;;;2.25;0.70;;;10.50;82.30;;;;;;5113170;28;20373;-56
2021/12/01 10:34:46;;;;;;;2.47;1.08;;;10.50;82.90;;;;;;5112039;28;20126;-55
2021/12/01 10:37:27;;;;;;;3.53;0.80;;;10.50;82.20;;;;;;5113204;28;20047;-56
2021/12/01 10:40:04;;;;;;;0.93;0.70;;;10.50;82.20;;;;;;5113787;27;20221;-55
2021/12/01 10:42:30;;;;;;;1.70;0.85;;;10.50;82.20;;;;;;5112668;28;20065;-51
2021/12/01 10:45:06;;;;;;;2.15;1.23;;;10.50;82.20;;;;;;5112897;28;20085;-55
2021/12/01 10:47:40;;;;;;;1.52;0.82;;;10.50;82.20;;;;;;5111499;28;20201;-55
2021/12/01 10:50:12;;;;;;;4.10;1.00;;;10.50;82.20;;;;;;5113861;28;20074;-56
2021/12/01 10:52:42;;;;;;;2.25;0.75;;;10.50;82.20;;;;;;5112642;28;20044;-56
2021/12/01 10:55:25;;;;;;;1.10;0.55;;;10.60;82.30;;;;;;5112460;28;20044;-56
2021/12/01 10:57:58;;;;;;;1.58;0.82;;;10.50;82.20;;;;;;5112916;28;20407;-56
2021/12/01 11:00:39;;;;;;;2.00;1.15;;;10.50;82.20;;;;;;5113682;28;20079;-56
2021/12/01 11:03:25;;;;;;;1.25;0.80;;;10.50;82.10;;;;;;5112584;28;20059;-56
2021/12/01 11:05:54;;;;;;;;;;;10.50;82.10;;;;;;5112843;28;20438;-57
2021/12/01 11:08:21;;;;;;;2.15;0.85;;;10.50;81.90;;;;;;5112780;28;19920;-57
2021/12/01 11:11:17;;;;;;;1.25;0.75;;;10.50;82.20;;;;;;5112344;28;20047;-49
2021/12/01 11:13:46;;;;;;;2.67;0.90;;;10.50;82.00;;;;;;5049469;28;20453;-56
2021/12/01 11:16:13;;;;;;;1.92;0.70;;;10.50;82.80;;;;;;5049663;28;20128;-56
2021/12/01 11:18:43;;;;;;;2.45;0.85;;;10.50;82.20;;;;;;5049443;28;20049;-56
2021/12/01 11:21:17;;;;;;;1.20;0.60;;;10.50;82.20;;;;;;5049615;28;20103;-58
2021/12/01 11:23:45;;;;;;;2.13;0.90;;;10.50;82.20;;;;;;5068953;28;20135;-56
2021/12/01 11:26:20;;;;;;;2.67;0.85;;;10.50;82.20;;;;;;5069048;28;20403;-55
2021/12/01 11:28:51;;;;;;;1.90;0.90;;;10.50;82.20;;;;;;5073646;28;20051;-54
2021/12/01 11:31:42;;;;;;;3.70;0.88;;;10.50;82.20;;;;;;5073345;28;20084;-54
2021/12/01 11:34:14;;;;;;;4.10;0.90;;;10.50;82.00;;;;;;5073216;28;20037;-60
2021/12/01 11:36:45;;;;;;;1.88;0.68;;;10.50;82.20;;;;;;5073466;28;20058;-56
2021/12/01 11:39:18;;;;;;;1.67;1.00;;;10.50;82.20;;;;;;5073480;28;20048;-58
2021/12/01 11:41:45;;;;;;;4.05;0.90;;;10.50;82.10;;;;;;5072486;28;20092;-57
2021/12/01 11:44:13;;;;;;;3.97;1.48;;;10.50;82.10;;;;;;5056622;28;20456;-55
2021/12/01 11:46:39;;;;;;;3.08;0.90;;;10.60;82.20;;;;;;5056635;28;20055;-56
2021/12/01 11:49:10;;;;;;;3.65;0.90;;;10.50;82.10;;;;;;5076930;28;20048;-54
2021/12/01 11:51:47;;;;;;;2.13;1.08;;;10.50;82.10;;;;;;5116053;28;20047;-55
2021/12/01 11:54:16;;;;;;;3.70;1.20;;;10.60;82.20;;;;;;5117383;27;20036;-57
2021/12/01 11:56:55;;;;;;;4.22;0.95;;;10.60;82.20;;;;;;5116455;28;20050;-55
2021/12/01 11:59:29;;;;;;;1.45;0.90;;;10.60;82.10;;;;;;5114664;28;20047;-58
2021/12/01 12:02:02;;;;;;;3.08;1.05;;;10.60;82.20;;;;;;5115952;28;20043;-57
2021/12/01 12:04:37;;;;;;;2.95;1.40;;;10.60;82.50;;;;;;5117322;27;20043;-58
2021/12/01 12:07:10;;;;;;;3.25;1.67;;;10.50;82.10;;;;;;5115813;28;20073;-55
2021/12/01 12:09:37;;;;;;;4.18;1.52;;;10.60;82.10;;;;;;5115071;28;20089;-56
2021/12/01 12:12:10;;;;;;;2.95;1.38;;;10.60;82.10;;;;;;5116009;28;20487;-57
2021/12/01 12:14:44;;;;;;;4.85;1.15;;;10.50;82.00;;;;;;5115453;28;20046;-56
2021/12/01 12:17:15;;;;;;;3.35;0.88;;;10.50;82.00;;;;;;5135771;27;20051;-58
2021/12/01 12:19:47;;;;;;;2.47;1.17;;;10.50;82.00;;;;;;5136018;27;20500;-56
2021/12/01 12:22:41;;;;;;;5.40;2.15;;;10.50;82.00;;;;;;5136022;27;20126;-52
2021/12/01 12:25:11;;;;;;;8.10;1.70;;;10.50;81.50;;;;;;5032645;28;20528;-50
2021/12/01 12:27:45;;;;;;;5.97;1.60;;;10.60;81.90;;;;;;5030942;28;20046;-48
2021/12/01 12:30:14;;;;;;;3.10;1.52;;;10.50;82.00;;;;;;5016383;28;20101;-50
2021/12/01 12:32:42;;;;;;;3.88;1.50;;;10.50;82.10;;;;;;5012574;28;20137;-50
2021/12/01 12:35:12;;;;;;;4.63;1.88;;;10.50;82.10;;;;;;5013215;28;20379;-48
2021/12/01 12:37:38;;;;;;;6.20;1.90;;;10.50;82.20;;;;;;5033111;28;20046;-51
2021/12/01 12:40:09;;;;;;;3.22;1.38;;;10.50;82.30;;;;;;5032360;28;20052;-50
2021/12/01 12:42:35;;;;;;;5.03;1.90;;;10.50;82.40;;;;;;5032056;28;20061;-50
2021/12/01 12:45:01;;;;;;;4.95;1.80;;;10.50;82.40;;;;;;5031845;28;20425;-49
2021/12/01 12:47:39;;;;;;;3.67;1.70;;;10.50;82.40;;;;;;5031956;28;20099;-48
2021/12/01 12:50:24;;;;;;;4.05;1.38;;;10.50;82.40;;;;;;5049222;28;20112;-51
2021/12/01 12:52:51;;;;;;;4.63;1.65;;;10.50;82.40;;;;;;5051909;28;20045;-58
2021/12/01 12:55:23;;;;;;;6.85;1.63;;;10.50;82.50;;;;;;5033849;28;20092;-53